Time;durP1;ratioP1;P1;durP2;ratioP2;P2;SDS_P1;SDS_P2;PMS_P1;PMS_P2;Temp;Humidity;BMP_temperature;BMP_pressure;BME280_temperature;BME280_humidity;BME280_pressure;Samples;Min_cycle;Max_cycle;Signal;HPM_P1;HPM_P2
2023/07/24 00:01:57;;;;;;;7.65;5.65;;;;;;;18.28;100.00;100256.34;5000684;28;20065;-79
2023/07/24 00:04:22;;;;;;;12.77;5.30;;;;;;;18.14;100.00;100242.56;5000302;28;20482;-79
2023/07/24 00:06:48;;;;;;;7.78;5.75;;;;;;;18.16;100.00;100257.09;5005182;28;20077;-79
2023/07/24 00:09:13;;;;;;;9.88;6.20;;;;;;;18.19;100.00;100244.06;5001961;28;20029;-79
2023/07/24 00:11:38;;;;;;;8.55;5.15;;;;;;;18.12;100.00;100255.59;4998755;28;20599;-79
2023/07/24 00:14:04;;;;;;;8.48;5.65;;;;;;;18.22;100.00;100251.69;4988034;28;20516;-79
2023/07/24 00:16:29;;;;;;;10.20;5.47;;;;;;;18.23;100.00;100253.25;4982946;28;20048;-79
2023/07/24 00:18:55;;;;;;;7.78;5.30;;;;;;;18.28;100.00;100247.06;5012839;28;20088;-79
2023/07/24 00:21:20;;;;;;;7.95;5.30;;;;;;;18.21;100.00;100253.69;5013946;28;20037;-79
2023/07/24 00:23:46;;;;;;;7.95;5.53;;;;;;;18.26;100.00;100252.38;4997506;28;20021;-80
2023/07/24 00:26:11;;;;;;;7.88;5.32;;;;;;;18.17;100.00;100249.38;4993439;28;21612;-79
2023/07/24 00:28:36;;;;;;;7.95;4.93;;;;;;;18.17;100.00;100244.53;4997316;28;22198;-80
2023/07/24 00:31:02;;;;;;;6.90;5.03;;;;;;;18.13;100.00;100238.16;4996559;28;20026;-80
2023/07/24 00:33:27;;;;;;;6.97;4.07;;;;;;;18.05;100.00;100240.38;4989525;28;20033;-80
2023/07/24 00:35:57;;;;;;;7.43;4.80;;;;;;;18.05;100.00;100236.75;4994239;28;20025;-80
2023/07/24 00:38:23;;;;;;;6.72;4.07;;;;;;;18.03;100.00;100228.72;4998621;28;20582;-79
2023/07/24 00:40:48;;;;;;;6.43;4.53;;;;;;;18.06;100.00;100236.28;5000258;28;20188;-79
2023/07/24 00:43:14;;;;;;;7.47;4.60;;;;;;;18.00;100.00;100235.25;5001431;28;20509;-79
2023/07/24 00:45:39;;;;;;;8.82;4.90;;;;;;;17.97;100.00;100238.97;4997651;28;20041;-79
2023/07/24 00:48:05;;;;;;;5.47;3.60;;;;;;;17.94;100.00;100222.06;4996916;28;20034;-79
2023/07/24 00:50:30;;;;;;;6.65;4.47;;;;;;;17.99;100.00;100236.50;5002842;28;20067;-80
2023/07/24 00:52:57;;;;;;;6.07;3.47;;;;;;;17.94;100.00;100210.75;5013618;28;20034;-79
2023/07/24 00:55:22;;;;;;;6.50;3.90;;;;;;;17.91;100.00;100218.09;4992767;28;20081;-80
2023/07/24 00:57:48;;;;;;;8.05;4.25;;;;;;;17.93;100.00;100226.16;4992442;28;20033;-79
2023/07/24 01:00:13;;;;;;;5.88;4.00;;;;;;;17.85;100.00;100215.00;4999954;28;20184;-79
2023/07/24 01:02:40;;;;;;;7.97;4.28;;;;;;;17.88;100.00;100216.19;4997648;28;20434;-79
2023/07/24 01:05:07;;;;;;;6.40;3.78;;;;;;;17.86;100.00;100207.31;5009244;28;20107;-79
2023/07/24 01:07:33;;;;;;;6.80;3.85;;;;;;;17.82;100.00;100204.59;5006355;28;20530;-79
2023/07/24 01:09:58;;;;;;;5.55;3.60;;;;;;;17.92;100.00;100201.91;5002535;28;20041;-80
2023/07/24 01:12:34;;;;;;;6.10;4.50;;;;;;;17.91;100.00;100206.78;5004255;28;20090;-79
2023/07/24 01:15:06;;;;;;;9.05;4.78;;;;;;;17.83;100.00;100202.53;5014234;28;20557;-79
2023/07/24 01:17:32;;;;;;;6.93;4.20;;;;;;;17.91;100.00;100203.16;4997176;28;20026;-79
2023/07/24 01:20:02;;;;;;;6.20;3.88;;;;;;;17.78;100.00;100186.06;4998516;28;20038;-79
2023/07/24 01:22:37;;;;;;;8.20;4.03;;;;;;;17.82;100.00;100187.59;4999702;28;20030;-80
2023/07/24 01:25:23;;;;;;;5.45;3.38;;;;;;;17.85;100.00;100185.91;4990638;28;20033;-80
2023/07/24 01:27:48;;;;;;;9.13;4.22;;;;;;;17.76;100.00;100172.38;5000693;28;20030;-79
2023/07/24 01:30:19;;;;;;;7.30;4.68;;;;;;;17.62;100.00;100167.84;4995986;28;20064;-79
2023/07/24 01:32:45;;;;;;;8.00;4.07;;;;;;;17.57;100.00;100176.09;4994900;28;20092;-79
2023/07/24 01:35:11;;;;;;;5.25;3.83;;;;;;;17.76;100.00;100165.91;4998629;28;20579;-79
2023/07/24 01:37:39;;;;;;;8.45;4.45;;;;;;;17.75;100.00;100164.31;4976206;28;20033;-79
2023/07/24 01:40:06;;;;;;;6.45;4.38;;;;;;;17.58;100.00;100158.69;4999203;28;20029;-80
2023/07/24 01:42:33;;;;;;;6.68;3.80;;;;;;;17.58;100.00;100163.53;5003862;28;20414;-79
2023/07/24 01:44:58;;;;;;;6.50;4.15;;;;;;;17.55;100.00;100155.94;4995592;28;20075;-80
2023/07/24 01:47:24;;;;;;;7.35;3.72;;;;;;;17.59;100.00;100171.59;5004146;28;20391;-79
2023/07/24 01:49:49;;;;;;;7.18;4.28;;;;;;;17.63;100.00;100163.81;5004214;28;20041;-79
2023/07/24 01:52:15;;;;;;;6.20;3.88;;;;;;;17.72;100.00;100160.34;4990919;28;20042;-79
2023/07/24 01:54:42;;;;;;;5.80;3.67;;;;;;;17.61;100.00;100154.97;4992881;28;20061;-79
2023/07/24 01:57:07;;;;;;;5.30;4.18;;;;;;;17.58;100.00;100161.53;4987306;28;20079;-78
2023/07/24 01:59:33;;;;;;;7.15;4.20;;;;;;;17.50;100.00;100145.16;4991352;28;20038;-79
2023/07/24 02:01:58;;;;;;;5.07;3.42;;;;;;;17.60;100.00;100152.56;4994072;28;20033;-79
2023/07/24 02:04:24;;;;;;;6.38;4.68;;;;;;;17.61;100.00;100166.28;4993600;28;20021;-80
2023/07/24 02:06:49;;;;;;;7.07;4.60;;;;;;;17.65;100.00;100163.38;4993126;28;20052;-80
2023/07/24 02:09:15;;;;;;;6.38;3.90;;;;;;;17.60;100.00;100167.53;5005183;28;20037;-80
2023/07/24 02:11:41;;;;;;;7.82;4.63;;;;;;;17.62;100.00;100153.72;4998616;28;22089;-80
2023/07/24 02:14:07;;;;;;;7.70;3.88;;;;;;;17.56;100.00;100157.53;5003806;28;20048;-79
2023/07/24 02:16:32;;;;;;;6.63;4.35;;;;;;;17.51;100.00;100167.34;4974004;28;20446;-79
2023/07/24 02:18:58;;;;;;;6.25;3.83;;;;;;;17.54;100.00;100166.47;4993843;28;20036;-80
2023/07/24 02:21:24;;;;;;;6.95;3.92;;;;;;;17.50;100.00;100147.97;4978125;28;20093;-80
2023/07/24 02:23:49;;;;;;;6.78;4.20;;;;;;;17.55;100.00;100142.59;4988188;28;20029;-80
2023/07/24 02:26:15;;;;;;;7.28;4.28;;;;;;;17.66;100.00;100157.25;4991311;28;20044;-80
2023/07/24 02:28:40;;;;;;;6.40;3.63;;;;;;;17.67;100.00;100158.06;4990128;28;20123;-80
2023/07/24 02:31:06;;;;;;;8.52;4.80;;;;;;;17.54;100.00;100160.00;4992096;28;20037;-79
2023/07/24 02:33:31;;;;;;;6.30;4.15;;;;;;;17.55;100.00;100153.91;4990710;28;20041;-79
2023/07/24 02:35:57;;;;;;;6.85;4.65;;;;;;;17.48;100.00;100142.78;4987607;28;20806;-79
2023/07/24 02:38:22;;;;;;;7.00;4.65;;;;;;;17.53;100.00;100156.38;5008769;28;20027;-79
2023/07/24 02:40:49;;;;;;;8.10;4.43;;;;;;;17.43;100.00;100154.63;4989208;28;20667;-79
2023/07/24 02:43:15;;;;;;;8.82;4.45;;;;;;;17.47;100.00;100138.34;4996421;28;20085;-79
2023/07/24 02:45:40;;;;;;;9.65;5.13;;;;;;;17.56;100.00;100157.53;4993353;28;20093;-79
2023/07/24 02:48:06;;;;;;;7.75;5.50;;;;;;;17.35;100.00;100136.22;5008899;28;20093;-79
2023/07/24 02:50:33;;;;;;;7.47;4.55;;;;;;;17.48;100.00;100139.97;4995035;28;20036;-78
2023/07/24 02:52:59;;;;;;;7.82;5.50;;;;;;;17.45;100.00;100150.09;5008439;28;20045;-80
2023/07/24 02:55:25;;;;;;;6.65;4.75;;;;;;;17.50;100.00;100151.63;4990183;28;20069;-79
2023/07/24 02:57:51;;;;;;;8.38;5.32;;;;;;;17.43;100.00;100143.31;5007898;28;20543;-79
2023/07/24 03:00:16;;;;;;;9.07;5.07;;;;;;;17.38;100.00;100141.03;4994801;28;21844;-79
2023/07/24 03:02:42;;;;;;;12.40;6.47;;;;;;;17.28;100.00;100140.03;4975954;28;20057;-80
2023/07/24 03:05:07;;;;;;;10.60;5.65;;;;;;;17.50;100.00;100148.78;5007120;28;20034;-79
2023/07/24 03:07:35;;;;;;;7.47;4.50;;;;;;;17.41;100.00;100140.13;4993265;28;20057;-80
2023/07/24 03:10:02;;;;;;;8.23;6.40;;;;;;;17.54;100.00;100155.16;5007492;28;20125;-80
2023/07/24 03:12:27;;;;;;;8.90;5.15;;;;;;;17.50;100.00;100145.97;5007335;28;20042;-80
2023/07/24 03:14:53;;;;;;;7.70;5.25;;;;;;;17.53;100.00;100153.56;5008763;28;20029;-79
2023/07/24 03:17:18;;;;;;;7.70;5.10;;;;;;;17.44;100.00;100134.38;5009074;28;20029;-80
2023/07/24 03:19:43;;;;;;;7.90;5.43;;;;;;;17.57;100.00;100137.28;4988389;28;20454;-79
2023/07/24 03:22:09;;;;;;;6.15;4.63;;;;;;;17.47;100.00;100138.34;4992566;28;20084;-80
2023/07/24 03:24:36;;;;;;;11.30;7.20;;;;;;;17.40;100.00;100139.34;4988138;28;20527;-80
2023/07/24 03:27:02;;;;;;;7.75;5.30;;;;;;;17.39;100.00;100134.13;4990956;28;20034;-79
2023/07/24 03:29:27;;;;;;;7.47;4.75;;;;;;;17.50;100.00;100148.78;4995096;28;20060;-79
2023/07/24 03:31:53;;;;;;;9.63;5.80;;;;;;;17.54;100.00;100137.38;4991593;28;20077;-80
2023/07/24 03:34:19;;;;;;;8.45;4.57;;;;;;;17.58;100.00;100132.41;4991618;28;20026;-80
2023/07/24 03:36:44;;;;;;;7.55;5.45;;;;;;;17.56;100.00;100134.88;4990489;28;20034;-80
2023/07/24 03:39:11;;;;;;;6.50;4.85;;;;;;;17.56;100.00;100147.03;5010370;28;20204;-80
2023/07/24 03:41:37;;;;;;;7.40;5.68;;;;;;;17.51;100.00;100150.38;4989665;28;20411;-80
2023/07/24 03:44:02;;;;;;;7.22;4.97;;;;;;;17.54;100.00;100132.53;4989373;28;20033;-80
2023/07/24 03:46:28;;;;;;;8.48;5.20;;;;;;;17.53;100.00;100125.25;4994685;28;20033;-80
2023/07/24 03:48:53;;;;;;;8.38;5.85;;;;;;;17.52;100.00;100128.53;4994967;28;20033;-80
2023/07/24 03:51:19;;;;;;;9.38;5.80;;;;;;;17.43;100.00;100118.66;5000203;28;20034;-79
2023/07/24 03:53:44;;;;;;;8.20;4.70;;;;;;;17.40;100.00;100104.59;4995654;28;20061;-80
2023/07/24 03:56:10;;;;;;;8.30;5.80;;;;;;;17.41;100.00;100101.34;5009842;28;20041;-80
2023/07/24 03:58:35;;;;;;;8.88;5.15;;;;;;;17.43;100.00;100093.19;4996041;28;20132;-80
2023/07/24 04:01:02;;;;;;;7.15;4.72;;;;;;;17.42;100.00;100087.97;4992287;28;20057;-79
2023/07/24 04:03:28;;;;;;;8.65;5.07;;;;;;;17.47;100.00;100093.88;4990450;28;20040;-80
2023/07/24 04:05:53;;;;;;;6.63;4.93;;;;;;;17.51;100.00;100102.28;4992287;28;20039;-79
2023/07/24 04:08:19;;;;;;;9.75;5.85;;;;;;;17.51;100.00;100110.75;5000542;28;20068;-79
2023/07/24 04:10:44;;;;;;;8.63;5.15;;;;;;;17.51;100.00;100109.97;4994793;28;20091;-79
2023/07/24 04:13:10;;;;;;;10.57;5.75;;;;;;;17.47;100.00;100098.75;4989970;28;20120;-79
2023/07/24 04:15:35;;;;;;;6.95;4.68;;;;;;;17.61;100.00;100115.34;4986687;28;20042;-80
2023/07/24 04:18:00;;;;;;;6.30;4.13;;;;;;;17.62;100.00;100102.78;4966343;28;20065;-79
2023/07/24 04:20:26;;;;;;;7.53;5.03;;;;;;;17.61;100.00;100101.19;4993784;28;20026;-80
2023/07/24 04:22:51;;;;;;;8.30;5.82;;;;;;;17.54;100.00;100101.41;4996283;28;20517;-78
2023/07/24 04:25:17;;;;;;;7.85;4.88;;;;;;;17.43;100.00;100103.69;4998086;28;20058;-81
2023/07/24 04:27:42;;;;;;;8.35;5.70;;;;;;;17.55;100.00;100105.81;4991310;28;20046;-81
2023/07/24 04:30:08;;;;;;;8.07;5.65;;;;;;;17.41;100.00;100094.84;4989237;28;20030;-80
2023/07/24 04:32:33;;;;;;;7.10;4.55;;;;;;;17.38;100.00;100099.38;5007189;28;20774;-80
2023/07/24 04:34:59;;;;;;;8.27;4.68;;;;;;;17.20;100.00;100085.72;4992068;28;20038;-80
2023/07/24 04:37:24;;;;;;;8.95;5.65;;;;;;;17.27;100.00;100088.34;4990487;28;20486;-81
2023/07/24 04:39:50;;;;;;;8.57;5.72;;;;;;;17.42;100.00;100096.47;4995264;28;20440;-80
2023/07/24 04:42:15;;;;;;;7.32;5.13;;;;;;;17.34;100.00;100084.53;4996616;28;20038;-79
2023/07/24 04:44:40;;;;;;;7.60;4.47;;;;;;;17.38;100.00;100090.09;4997042;28;20034;-79
2023/07/24 04:47:06;;;;;;;9.07;5.60;;;;;;;17.37;100.00;100077.19;4988343;28;20073;-79
2023/07/24 04:49:32;;;;;;;8.43;5.13;;;;;;;17.56;100.00;100096.09;4994049;28;20135;-79
2023/07/24 04:51:58;;;;;;;7.47;4.57;;;;;;;17.45;100.00;100085.03;4999822;28;20105;-80
2023/07/24 04:54:25;;;;;;;9.65;6.68;;;;;;;17.54;100.00;100098.56;5008756;28;20517;-79
2023/07/24 04:56:51;;;;;;;7.97;5.53;;;;;;;17.55;100.00;100105.81;4990393;28;20045;-80
2023/07/24 04:59:16;;;;;;;6.57;4.93;;;;;;;17.43;100.00;100092.38;4995748;28;20042;-80
2023/07/24 05:01:43;;;;;;;8.20;5.60;;;;;;;17.47;100.00;100093.88;5005459;28;20366;-79
2023/07/24 05:04:08;;;;;;;7.50;4.82;;;;;;;17.36;100.00;100103.91;5007085;28;20478;-80
2023/07/24 05:06:35;;;;;;;9.68;6.40;;;;;;;17.32;100.00;100069.25;4997042;28;20041;-80
2023/07/24 05:09:01;;;;;;;10.05;5.22;;;;;;;17.39;100.00;100083.19;4993421;28;20127;-80
2023/07/24 05:11:26;;;;;;;8.43;5.53;;;;;;;17.40;100.00;100081.97;4989878;28;20747;-79
2023/07/24 05:13:53;;;;;;;6.43;5.32;;;;;;;17.35;100.00;100068.34;4992862;28;20040;-79
2023/07/24 05:16:18;;;;;;;7.10;4.63;;;;;;;17.37;100.00;100077.19;4993887;28;20182;-79
2023/07/24 05:18:44;;;;;;;7.85;5.43;;;;;;;17.46;100.00;100088.69;4986372;28;20544;-79
2023/07/24 05:21:09;;;;;;;9.85;5.80;;;;;;;17.36;100.00;100086.91;4992221;28;20328;-80
2023/07/24 05:23:35;;;;;;;8.32;5.70;;;;;;;17.41;100.00;100078.69;4993021;28;20805;-78
2023/07/24 05:26:01;;;;;;;7.97;4.65;;;;;;;17.52;100.00;100086.09;4973363;28;20049;-79
2023/07/24 05:28:28;;;;;;;6.07;4.50;;;;;;;17.54;100.00;100094.91;4992479;28;20457;-79
2023/07/24 05:30:54;;;;;;;8.90;6.10;;;;;;;17.44;100.00;100082.66;4988622;28;20034;-79
2023/07/24 05:33:19;;;;;;;10.43;5.85;;;;;;;17.41;100.00;100066.56;4983149;28;20033;-79
2023/07/24 05:35:44;;;;;;;9.02;6.85;;;;;;;17.42;100.00;100079.50;4989708;28;20044;-78
2023/07/24 05:38:10;;;;;;;7.38;4.90;;;;;;;17.47;100.00;100087.44;4990295;28;20283;-79
2023/07/24 05:40:35;;;;;;;12.80;6.70;;;;;;;17.36;100.00;100089.75;4987193;28;20342;-79
2023/07/24 05:43:01;;;;;;;9.48;5.78;;;;;;;17.44;100.00;100099.66;4994370;28;20038;-78
2023/07/24 05:45:27;;;;;;;8.60;5.15;;;;;;;17.37;100.00;100099.81;4993342;28;20034;-79
2023/07/24 05:47:53;;;;;;;10.77;5.88;;;;;;;17.32;100.00;100086.22;4994196;28;20042;-79
2023/07/24 05:50:18;;;;;;;9.38;5.63;;;;;;;17.48;100.00;100103.19;4976076;28;20057;-79
2023/07/24 05:52:44;;;;;;;7.80;5.57;;;;;;;17.38;100.00;100096.56;4993606;28;20033;-79
2023/07/24 05:55:09;;;;;;;9.15;6.70;;;;;;;17.16;100.00;100087.84;4991627;28;20037;-79
2023/07/24 05:57:35;;;;;;;10.13;6.68;;;;;;;17.31;100.00;100107.25;4992321;28;20488;-79
2023/07/24 06:00:02;;;;;;;9.45;6.30;;;;;;;17.45;100.00;100104.06;4991693;28;20038;-79
2023/07/24 06:02:27;;;;;;;10.18;6.05;;;;;;;17.53;100.00;100113.16;4994548;28;20585;-79
2023/07/24 06:04:53;;;;;;;10.98;6.88;;;;;;;17.54;100.00;100115.53;4995773;28;20022;-79
2023/07/24 06:07:19;;;;;;;11.18;5.70;;;;;;;17.59;100.00;100106.50;4998567;28;20669;-79
2023/07/24 06:09:45;;;;;;;9.25;6.40;;;;;;;17.51;100.00;100105.09;5004162;28;20064;-79
2023/07/24 06:12:10;;;;;;;11.57;7.43;;;;;;;17.51;100.00;100107.16;5009985;28;20065;-79
2023/07/24 06:14:36;;;;;;;11.38;6.95;;;;;;;17.62;100.00;100110.47;4998975;28;20037;-79
2023/07/24 06:17:01;;;;;;;13.55;6.45;;;;;;;17.62;100.00;100110.47;4994967;28;20036;-79
2023/07/24 06:19:27;;;;;;;8.98;5.57;;;;;;;17.64;100.00;100117.28;4990951;28;20405;-79
2023/07/24 06:21:53;;;;;;;11.60;6.22;;;;;;;17.57;100.00;100114.66;4993980;28;20083;-79
2023/07/24 06:24:18;;;;;;;11.43;6.00;;;;;;;17.71;100.00;100109.84;4992880;28;20034;-79
2023/07/24 06:26:43;;;;;;;12.82;7.15;;;;;;;17.64;100.00;100103.13;4994718;28;20029;-79
2023/07/24 06:29:09;;;;;;;9.30;5.88;;;;;;;17.80;100.00;100112.84;4994436;28;20037;-79
2023/07/24 06:31:34;;;;;;;12.85;7.88;;;;;;;17.89;100.00;100104.50;4992175;28;21618;-79
2023/07/24 06:34:00;;;;;;;12.13;6.78;;;;;;;18.00;100.00;100107.81;4990534;28;20021;-83
2023/07/24 06:36:26;;;;;;;10.13;7.20;;;;;;;18.09;100.00;100104.38;4988552;28;20046;-84
2023/07/24 06:38:51;;;;;;;6.72;4.20;;;;;;;18.56;100.00;100102.97;4999488;28;20032;-78
2023/07/24 06:41:17;;;;;;;11.35;6.68;;;;;;;18.63;100.00;100102.75;4990737;28;20030;-79
2023/07/24 06:43:43;;;;;;;16.27;7.15;;;;;;;18.66;100.00;100099.00;4996523;28;20132;-78
2023/07/24 06:46:08;;;;;;;10.95;6.22;;;;;;;18.69;100.00;100106.59;4994158;28;20111;-78
2023/07/24 06:48:34;;;;;;;9.55;6.40;;;;;;;18.71;100.00;100104.09;4999164;28;20029;-79
2023/07/24 06:50:59;;;;;;;13.55;6.68;;;;;;;18.85;100.00;100114.25;4993578;28;20037;-78
2023/07/24 06:53:24;;;;;;;10.60;5.95;;;;;;;18.82;100.00;100098.91;4992942;28;20146;-79
2023/07/24 06:55:50;;;;;;;10.60;6.22;;;;;;;18.87;100.00;100106.88;4990192;28;20037;-79
2023/07/24 06:58:15;;;;;;;12.68;7.25;;;;;;;18.76;100.00;100105.56;5008077;28;20030;-79
2023/07/24 07:00:40;;;;;;;11.23;5.93;;;;;;;18.60;100.00;100103.66;4992402;28;20360;-79
2023/07/24 07:03:06;;;;;;;14.60;6.50;;;;;;;18.78;100.00;100105.91;4992231;28;20049;-78
2023/07/24 07:05:32;;;;;;;14.05;5.60;;;;;;;18.80;100.00;100101.41;4992834;28;20218;-78
2023/07/24 07:07:57;;;;;;;9.30;5.78;;;;;;;18.76;100.00;100120.53;4989716;28;20390;-79
2023/07/24 07:10:25;;;;;;;15.55;7.22;;;;;;;18.74;100.00;100114.56;4996525;28;20080;-78
2023/07/24 07:12:50;;;;;;;11.82;5.78;;;;;;;19.16;100.00;100119.31;4994789;28;20200;-78
2023/07/24 07:15:16;;;;;;;10.82;5.80;;;;;;;18.94;100.00;100114.34;5000310;28;20554;-78
2023/07/24 07:17:42;;;;;;;7.82;5.90;;;;;;;19.45;100.00;100119.16;4997613;28;20054;-78
2023/07/24 07:20:07;;;;;;;9.80;5.65;;;;;;;19.71;100.00;100125.56;4997471;28;20032;-79
2023/07/24 07:22:33;;;;;;;9.45;6.05;;;;;;;19.57;100.00;100124.00;5010317;28;20033;-79
2023/07/24 07:24:58;;;;;;;8.60;5.60;;;;;;;19.69;100.00;100108.16;5001785;28;20376;-78
2023/07/24 07:27:23;;;;;;;11.77;5.85;;;;;;;20.15;100.00;100111.38;5016271;28;20042;-79
2023/07/24 07:29:49;;;;;;;13.18;6.88;;;;;;;19.53;100.00;100106.28;4997180;28;20042;-79
2023/07/24 07:32:14;;;;;;;13.18;7.03;;;;;;;19.28;100.00;100107.94;4999449;28;20068;-79
2023/07/24 07:34:40;;;;;;;8.48;6.07;;;;;;;19.87;100.00;100113.25;5001148;28;20037;-79
2023/07/24 07:37:06;;;;;;;10.45;5.65;;;;;;;19.89;100.00;100116.41;5002153;28;20033;-78
2023/07/24 07:39:32;;;;;;;8.68;5.40;;;;;;;19.67;100.00;100105.81;5000003;28;20073;-79
2023/07/24 07:41:58;;;;;;;10.35;7.03;;;;;;;19.48;100.00;100104.06;4997558;28;20025;-79
2023/07/24 07:44:23;;;;;;;11.05;6.15;;;;;;;19.34;100.00;100101.69;4995354;28;20029;-79
2023/07/24 07:46:48;;;;;;;11.20;6.13;;;;;;;19.34;100.00;100107.38;4999003;28;20041;-79
2023/07/24 07:49:14;;;;;;;11.63;6.68;;;;;;;19.17;100.00;100107.50;5005925;28;20060;-79
2023/07/24 07:51:39;;;;;;;11.32;6.50;;;;;;;19.50;100.00;100108.00;5002683;28;20038;-78
2023/07/24 07:54:05;;;;;;;7.50;5.20;;;;;;;19.53;100.00;100117.66;5000179;28;20289;-79
2023/07/24 07:56:30;;;;;;;13.23;6.13;;;;;;;19.72;100.00;100112.19;5002971;28;20026;-79
2023/07/24 07:58:55;;;;;;;14.25;6.15;;;;;;;19.47;100.00;100108.13;5015552;28;20030;-78
2023/07/24 08:01:21;;;;;;;11.27;7.15;;;;;;;19.37;100.00;100109.28;5001340;28;20084;-82
2023/07/24 08:03:46;;;;;;;11.30;7.10;;;;;;;19.26;100.00;100104.75;5001399;28;21245;-82
2023/07/24 08:06:12;;;;;;;11.68;7.47;;;;;;;19.17;100.00;100113.19;5002761;28;20054;-82
2023/07/24 08:08:38;;;;;;;12.23;6.35;;;;;;;19.14;100.00;100105.56;5003839;28;20018;-83
2023/07/24 08:11:07;;;;;;;11.93;5.97;;;;;;;19.09;100.00;100106.94;5010941;28;20034;-83
2023/07/24 08:13:35;;;;;;;10.88;7.00;;;;;;;19.13;100.00;100112.50;5003241;28;20042;-83
2023/07/24 08:16:03;;;;;;;12.13;7.07;;;;;;;19.09;100.00;100106.94;5001838;28;20042;-80
2023/07/24 08:18:29;;;;;;;11.68;7.93;;;;;;;19.08;100.00;100115.94;5017263;28;20080;-81
2023/07/24 08:20:55;;;;;;;17.60;8.52;;;;;;;19.16;100.00;100111.59;5006066;28;20093;-81
2023/07/24 08:23:20;;;;;;;12.00;6.82;;;;;;;19.20;100.00;100105.81;5016797;28;20152;-82
2023/07/24 08:25:55;;;;;;;9.48;6.47;;;;;;;19.25;100.00;100096.72;5004927;28;20088;-82
2023/07/24 08:28:21;;;;;;;9.82;6.40;;;;;;;19.29;100.00;100097.41;5001324;28;20573;-82
2023/07/24 08:30:57;;;;;;;11.88;5.38;;;;;;;19.54;100.00;100102.19;5002009;28;20036;-82
2023/07/24 08:33:24;;;;;;;9.48;6.18;;;;;;;19.53;100.00;100099.84;5003316;28;20109;-84
2023/07/24 08:36:03;;;;;;;11.70;6.13;;;;;;;19.48;100.00;100102.00;4997914;28;20030;-84
2023/07/24 08:38:28;;;;;;;11.18;7.07;;;;;;;19.74;100.00;100092.63;5006386;28;20026;-85
2023/07/24 08:41:11;;;;;;;8.95;6.55;;;;;;;19.71;100.00;100105.69;4996498;28;20025;-84
2023/07/24 08:43:39;;;;;;;9.88;6.00;;;;;;;19.72;100.00;100095.13;5001456;28;20644;-84
2023/07/24 08:46:06;;;;;;;11.63;6.78;;;;;;;19.81;100.00;100093.16;4998423;28;20730;-85
2023/07/24 08:48:36;;;;;;;12.18;6.35;;;;;;;20.20;100.00;100101.50;5018811;28;20635;-84
2023/07/24 08:51:08;;;;;;;8.80;6.57;;;;;;;20.28;100.00;100086.56;5016119;28;20041;-85
2023/07/24 08:53:35;;;;;;;16.48;7.43;;;;;;;20.48;100.00;100093.91;4999657;28;20846;-85
2023/07/24 08:56:06;;;;;;;16.88;7.18;;;;;;;20.69;100.00;100089.47;5001133;28;20052;-86
2023/07/24 08:58:32;;;;;;;10.68;7.13;;;;;;;20.70;100.00;100093.88;5003577;28;20493;-86
2023/07/24 09:00:59;;;;;;;8.05;6.22;;;;;;;20.36;100.00;100101.25;5000659;28;20103;-86
2023/07/24 09:03:25;;;;;;;12.98;6.95;;;;;;;20.20;100.00;100101.50;5001191;28;20109;-86
2023/07/24 09:05:50;;;;;;;13.32;7.38;;;;;;;20.13;100.00;100090.38;5000487;28;20152;-87
2023/07/24 09:08:16;;;;;;;8.93;5.95;;;;;;;20.09;100.00;100094.16;5001580;28;20092;-87
2023/07/24 09:10:41;;;;;;;10.55;6.75;;;;;;;20.17;100.00;100091.03;4997456;28;20041;-85
2023/07/24 09:13:07;;;;;;;8.65;5.32;;;;;;;20.17;100.00;100093.88;5003533;28;20043;-84
2023/07/24 09:15:44;;;;;;;8.90;5.68;;;;;;;20.15;100.00;100088.66;4994451;28;20043;-84
2023/07/24 09:18:10;;;;;;;17.05;6.68;;;;;;;20.13;100.00;100096.06;4997417;28;20018;-84
2023/07/24 09:20:43;;;;;;;13.82;6.22;;;;;;;20.19;100.00;100088.53;4997612;28;20667;-84
2023/07/24 09:23:10;;;;;;;9.57;5.97;;;;;;;20.22;100.00;100087.63;5013361;28;20021;-83
2023/07/24 09:25:37;;;;;;;8.85;5.20;;;;;;;20.18;100.00;100084.91;5001247;28;20037;-83
2023/07/24 09:28:29;;;;;;;9.40;6.03;;;;;;;20.12;100.00;100085.97;5002466;28;20566;-84
2023/07/24 09:31:00;;;;;;;8.48;5.22;;;;;;;19.99;100.00;100081.16;5012038;28;20041;-84
2023/07/24 09:33:36;;;;;;;9.43;5.00;;;;;;;20.03;100.00;100075.34;5002081;28;20034;-84
2023/07/24 09:36:07;;;;;;;12.70;6.00;;;;;;;20.05;100.00;100079.31;5005406;28;20119;-86
2023/07/24 09:38:33;;;;;;;7.38;4.60;;;;;;;20.31;100.00;100079.13;5017847;28;20025;-86
2023/07/24 09:41:01;;;;;;;8.48;4.75;;;;;;;20.65;100.00;100063.22;4994654;28;20088;-85
2023/07/24 09:43:28;;;;;;;10.18;4.45;;;;;;;20.81;100.00;100070.72;5014106;28;20438;-87
2023/07/24 09:45:54;;;;;;;7.93;4.40;;;;;;;20.88;96.68;100079.72;5001382;28;20037;-85
2023/07/24 09:48:22;;;;;;;7.60;4.47;;;;;;;21.12;96.55;100073.47;5001911;28;20031;-84
2023/07/24 09:50:52;;;;;;;6.95;4.32;;;;;;;21.01;95.12;100073.91;5002956;28;20500;-84
2023/07/24 09:53:40;;;;;;;7.32;4.05;;;;;;;21.17;93.72;100074.94;4999375;28;20029;-84
2023/07/24 09:56:08;;;;;;;8.25;4.15;;;;;;;21.46;93.95;100074.50;5002926;28;20109;-84
2023/07/24 09:58:38;;;;;;;8.27;4.28;;;;;;;21.28;93.50;100070.34;5013189;28;20057;-85
2023/07/24 10:01:05;;;;;;;5.55;4.10;;;;;;;21.15;93.76;100069.69;5002159;28;20033;-85
2023/07/24 10:03:38;;;;;;;7.75;4.43;;;;;;;21.08;92.49;100067.13;5000485;28;20037;-85
2023/07/24 10:06:04;;;;;;;10.43;4.72;;;;;;;21.25;93.38;100065.63;5001692;28;20044;-84
2023/07/24 10:08:30;;;;;;;5.53;4.00;;;;;;;21.69;93.61;100053.97;5017777;28;20044;-84
2023/07/24 10:10:58;;;;;;;8.27;3.65;;;;;;;21.69;90.60;100058.84;4995805;28;20029;-80
2023/07/24 10:13:26;;;;;;;10.88;4.13;;;;;;;21.86;94.44;100050.78;4998093;28;20038;-80
2023/07/24 10:15:52;;;;;;;5.97;5.00;;;;;;;21.57;95.89;100054.91;4999010;28;20102;-81
2023/07/24 10:18:27;;;;;;;11.35;4.97;;;;;;;21.40;93.77;100050.75;4995370;28;20030;-85
2023/07/24 10:21:03;;;;;;;8.13;4.10;;;;;;;21.36;92.83;100058.69;4999417;28;20050;-84
2023/07/24 10:23:29;;;;;;;5.85;4.22;;;;;;;21.28;93.61;100047.56;5012799;28;20029;-84
2023/07/24 10:25:54;;;;;;;6.80;4.05;;;;;;;21.23;90.48;100045.38;5000573;28;20025;-84
2023/07/24 10:28:34;;;;;;;10.18;5.05;;;;;;;21.31;94.22;100040.97;5000240;28;20413;-84
2023/07/24 10:31:01;;;;;;;7.93;4.28;;;;;;;21.23;92.53;100039.69;4992772;28;20038;-84
2023/07/24 10:33:30;;;;;;;9.48;4.88;;;;;;;21.27;95.18;100050.88;4998228;28;20037;-83
2023/07/24 10:36:10;;;;;;;8.13;4.72;;;;;;;21.34;97.35;100044.13;4999814;28;20091;-82
2023/07/24 10:38:43;;;;;;;6.78;4.55;;;;;;;21.31;95.62;100040.97;5005670;28;20018;-82
2023/07/24 10:41:09;;;;;;;9.18;4.57;;;;;;;21.21;93.51;100039.34;5002483;28;20033;-82
2023/07/24 10:43:45;;;;;;;7.60;3.95;;;;;;;21.15;96.29;100038.41;4999424;28;20026;-82
2023/07/24 10:46:11;;;;;;;9.30;5.05;;;;;;;21.23;94.99;100031.16;4999397;28;20312;-82
2023/07/24 10:48:38;;;;;;;6.95;4.68;;;;;;;21.47;93.18;100037.03;5001196;28;20030;-82
2023/07/24 10:51:08;;;;;;;9.00;5.35;;;;;;;21.41;91.98;100043.78;5004526;28;20037;-82
2023/07/24 10:53:35;;;;;;;9.73;5.85;;;;;;;21.48;92.77;100041.47;5000099;28;20030;-83
2023/07/24 10:56:00;;;;;;;8.50;5.80;;;;;;;21.69;92.00;100033.22;5002855;28;20021;-84
2023/07/24 10:58:26;;;;;;;9.50;5.07;;;;;;;21.58;93.87;100025.16;5009776;28;20104;-84
2023/07/24 11:00:52;;;;;;;12.02;5.93;;;;;;;21.49;94.11;100034.50;5007304;28;20374;-84
2023/07/24 11:03:18;;;;;;;8.43;4.45;;;;;;;21.45;93.06;100022.47;5001351;28;20029;-83
2023/07/24 11:05:45;;;;;;;8.25;5.07;;;;;;;21.52;96.63;100027.88;5024276;28;20118;-83
2023/07/24 11:08:14;;;;;;;9.32;4.65;;;;;;;21.95;93.32;100024.31;5005594;28;20035;-83
2023/07/24 11:10:47;;;;;;;7.80;4.60;;;;;;;22.10;89.13;100037.44;5032840;28;20039;-82
2023/07/24 11:13:14;;;;;;;8.82;4.65;;;;;;;22.24;90.71;100036.03;5009514;28;20033;-84
2023/07/24 11:15:39;;;;;;;9.63;5.60;;;;;;;22.22;90.51;100032.00;5010211;28;20029;-82